Gujrat Weather



Gujrat's Current Weather

Temprature 25.08o broken clouds

broken clouds

Rain: 0 %

Min Temprature25.08o
Max Temprature25.08o
Humidity43
Wind Speed5.58 m/h
Sun Rise05:00:22
Sun Set19:00:56
Current Time: 24-May-2022 07:59:02
Lat/Lon: 32.5728, 74.079




Gujrat's Geo Location



Gujrat's Weather Forecast

Time Overall Temp Min Temp Max Temp Humidity Wind Speed Rain
24-May-2022 (Tue)
08:00:00 broken clouds 25.080 25.080 25.080 43 5.58 m/h 0 %
11:00:00 broken clouds 26.920 26.920 30.600 38 4.25 m/h 0 %
14:00:00 scattered clouds 30.490 30.490 33.200 29 2.71 m/h 0 %
17:00:00 few clouds 33.910 33.910 33.910 20 1.87 m/h 0 %
20:00:00 clear sky 30.500 30.500 30.500 24 1.71 m/h 0 %
23:00:00 clear sky 29.000 29.000 29.000 28 2.24 m/h 0 %
25-May-2022 (Wed)
02:00:00 clear sky 27.250 27.250 27.250 31 2.41 m/h 0 %
05:00:00 clear sky 25.880 25.880 25.880 35 1.5 m/h 0 %
08:00:00 clear sky 31.700 31.700 31.700 25 1.7 m/h 0 %
11:00:00 clear sky 37.390 37.390 37.390 16 1.29 m/h 0 %
14:00:00 clear sky 39.360 39.360 39.360 13 1.76 m/h 0 %
17:00:00 clear sky 39.030 39.030 39.030 13 2.73 m/h 0 %
20:00:00 clear sky 34.910 34.910 34.910 17 2.63 m/h 0 %
23:00:00 clear sky 31.970 31.970 31.970 23 1.85 m/h 0 %
26-May-2022 (Thu)
02:00:00 clear sky 30.110 30.110 30.110 25 1.7 m/h 0 %
05:00:00 clear sky 28.670 28.670 28.670 27 2.16 m/h 0 %
08:00:00 clear sky 34.830 34.830 34.830 19 3.32 m/h 0 %
11:00:00 clear sky 40.090 40.090 40.090 13 2.46 m/h 0 %
14:00:00 clear sky 42.550 42.550 42.550 11 3.57 m/h 0 %
17:00:00 clear sky 42.060 42.060 42.060 11 2.81 m/h 0 %
20:00:00 clear sky 36.850 36.850 36.850 15 3.3 m/h 0 %
23:00:00 clear sky 34.320 34.320 34.320 18 1.56 m/h 0 %
27-May-2022 (Fri)
02:00:00 clear sky 31.740 31.740 31.740 21 2.91 m/h 0 %
05:00:00 clear sky 29.870 29.870 29.870 23 1.9 m/h 0 %
08:00:00 clear sky 36.840 36.840 36.840 16 3.23 m/h 0 %
11:00:00 clear sky 42.700 42.700 42.700 11 3.29 m/h 0 %
14:00:00 clear sky 45.320 45.320 45.320 8 2.57 m/h 0 %
17:00:00 clear sky 45.010 45.010 45.010 8 3.29 m/h 0 %
20:00:00 clear sky 38.920 38.920 38.920 12 2.93 m/h 0 %
23:00:00 clear sky 35.900 35.900 35.900 16 3.19 m/h 0 %
28-May-2022 (Sat)
02:00:00 clear sky 32.370 32.370 32.370 24 4.01 m/h 0 %
05:00:00 clear sky 30.880 30.880 30.880 27 4.51 m/h 0 %
08:00:00 clear sky 38.340 38.340 38.340 17 7.89 m/h 0 %
11:00:00 clear sky 43.520 43.520 43.520 14 7.65 m/h 0 %
14:00:00 clear sky 45.880 45.880 45.880 12 8.11 m/h 0 %
17:00:00 clear sky 44.780 44.780 44.780 7 7.67 m/h 0 %
20:00:00 clear sky 36.070 36.070 36.070 20 7.46 m/h 0 %
23:00:00 clear sky 33.030 33.030 33.030 28 6.46 m/h 0 %
29-May-2022 (Sun)
02:00:00 clear sky 31.250 31.250 31.250 30 6.45 m/h 0 %
05:00:00 clear sky 29.920 29.920 29.920 32 5.4 m/h 0 %

Famous Cities (61)